La Tontouta, New Caledonia

3:09 AM NCT on July 27, 2016 (GMT +1100)
La Tontouta | | Change Station

Elev 52 ft 22.02 °S, 166.22 °E | Updated 9 minutes ago

Clear
Clear
64 °F
Feels Like 64 °F
N
4
Wind Variable Wind from Variable

Today
High -- | Low -- °F
--% Chance of Precip.
Yesterday
High -- | Low -- °F
Precip. -- in
Pressure 30.04 in
Visibility -9999.0 miles
Clouds
Dew Point 61 °F
Humidity 88%
Rainfall 0.00 in
Snow Depth Not available.
6:30 AM 5:33 PM
Waning Gibbous, 53% visible
METAR NWWW 261600Z AUTO VRB03KT CAVOK 18/16 Q1017 TEMPO 4000 BR
Pressure 30.04 in
Visibility -9999.0 miles
Clouds
Dew Point 61 °F
Humidity 88%
Rainfall 0.00 in
Snow Depth Not available.
6:30 AM 5:33 PM
Waning Gibbous, 53% visible
METAR NWWW 261600Z AUTO VRB03KT CAVOK 18/16 Q1017 TEMPO 4000 BR

10-Day Weather Forecast

No radar image for this location.
×

Almanac

Astronomy

Jul. 27, 2016 Rise Set
Actual Time
Civil Twilight
Nautical Twilight
Astronomical Twilight
Moon
Length of Visible Light
Length of Day
Tomorrow will be .
, % of the Moon is Illuminated

Today's Extremes

Country Highs Country Lows

Community

WunderPhotos

Upload Photos

1,927,625 photos uploaded!

WunderBlog® & News

Nearby

Air Quality

  Air Quality AQ Index Pollutant
Not available.

Snow Depth

Station Depth Elevation

Earthquake Activity

City Distance Mag. Time & Date
Minimum magnitude displayed is 2.5.

Coastal Water Temperatures

Place Temperature

Stations

Nearby Weather Stations

Station Location Temp. Windchill Dew Point Humidity Wind Precip. Elev Updated Type